createdAt,value
2018-02-15T00:00:38.895Z,96.80
2018-02-15T00:03:06.372Z,96.90
2018-02-15T00:05:33.837Z,97.10
2018-02-15T00:08:01.306Z,97.00
2018-02-15T00:10:28.789Z,96.90
2018-02-15T00:12:56.240Z,96.90
2018-02-15T00:15:23.889Z,96.60
2018-02-15T00:17:51.362Z,96.70
2018-02-15T00:20:18.984Z,96.90
2018-02-15T00:22:46.674Z,96.90
2018-02-15T00:25:14.144Z,96.80
2018-02-15T00:27:41.597Z,96.60
2018-02-15T00:30:09.840Z,97.10
2018-02-15T00:32:37.466Z,97.10
2018-02-15T00:35:05.686Z,96.60
2018-02-15T00:37:33.144Z,96.60
2018-02-15T00:40:00.630Z,96.60
2018-02-15T00:42:28.109Z,96.90
2018-02-15T00:44:56.355Z,96.50
2018-02-15T00:47:23.845Z,96.50
2018-02-15T00:49:52.084Z,96.50
2018-02-15T00:52:19.561Z,96.50
2018-02-15T00:54:47.114Z,96.60
2018-02-15T00:57:14.566Z,96.80
2018-02-15T00:59:42.035Z,97.00
2018-02-15T01:02:09.492Z,96.60
2018-02-15T01:04:36.941Z,96.70
2018-02-15T01:07:04.422Z,96.20
2018-02-15T01:09:31.862Z,97.00
2018-02-15T01:11:59.335Z,96.40
2018-02-15T01:14:27.548Z,96.80
2018-02-15T01:16:55.025Z,96.80
2018-02-15T01:19:22.524Z,97.20
2018-02-15T01:21:50.043Z,96.60
2018-02-15T01:24:17.496Z,96.90
2018-02-15T01:26:44.970Z,97.10
2018-02-15T01:29:12.423Z,96.40
2018-02-15T01:31:39.900Z,96.20
2018-02-15T01:34:07.430Z,96.40
2018-02-15T01:36:34.933Z,96.50
2018-02-15T01:39:02.388Z,96.30
2018-02-15T01:41:29.862Z,96.30
2018-02-15T01:43:58.122Z,96.40
2018-02-15T01:46:25.683Z,96.40
2018-02-15T01:48:53.138Z,96.10
2018-02-15T01:51:20.646Z,96.00
2018-02-15T01:53:48.109Z,96.10
2018-02-15T01:56:15.535Z,95.90
2018-02-15T01:58:43.802Z,95.80
2018-02-15T02:01:12.021Z,95.90
2018-02-15T02:03:39.487Z,95.90
2018-02-15T02:06:06.935Z,95.80
2018-02-15T02:08:34.428Z,96.00
2018-02-15T02:11:01.883Z,95.90
2018-02-15T02:13:29.326Z,96.30
2018-02-15T02:15:56.838Z,96.00
2018-02-15T02:18:25.073Z,95.70
2018-02-15T02:20:52.536Z,95.70
2018-02-15T02:23:20.014Z,95.20
2018-02-15T02:25:47.469Z,94.80
2018-02-15T02:28:14.935Z,95.00
2018-02-15T02:30:42.390Z,95.00
2018-02-15T02:33:09.842Z,94.60
2018-02-15T02:35:37.376Z,94.30
2018-02-15T02:38:04.875Z,94.20
2018-02-15T02:40:33.111Z,94.70
2018-02-15T02:43:00.566Z,94.60
2018-02-15T02:45:28.031Z,94.30
2018-02-15T02:47:55.515Z,94.30
2018-02-15T02:50:23.815Z,94.70
2018-02-15T02:52:52.036Z,94.70
2018-02-15T02:55:19.526Z,94.60
2018-02-15T02:57:47.000Z,94.20
2018-02-15T03:00:15.260Z,94.20
2018-02-15T03:02:42.704Z,94.20
2018-02-15T03:05:10.170Z,94.20
2018-02-15T03:07:37.621Z,94.30
2018-02-15T03:10:05.097Z,94.40
2018-02-15T03:12:33.319Z,94.00
2018-02-15T03:15:00.814Z,94.00
2018-02-15T03:17:28.271Z,94.00
2018-02-15T03:19:55.766Z,94.20
2018-02-15T03:22:23.999Z,92.90
2018-02-15T03:24:51.466Z,92.90
2018-02-15T03:27:18.934Z,93.00
2018-02-15T03:29:46.411Z,92.90
2018-02-15T03:32:14.650Z,93.00
2018-02-15T03:34:42.122Z,93.00
2018-02-15T03:37:09.675Z,93.30
2018-02-15T03:39:37.166Z,92.60
2018-02-15T03:42:05.414Z,92.80
2018-02-15T03:44:32.883Z,92.80
2018-02-15T03:47:00.348Z,93.20
2018-02-15T03:49:27.801Z,93.70
2018-02-15T03:51:55.255Z,93.30
2018-02-15T03:54:22.716Z,93.70
2018-02-15T03:56:50.186Z,93.40
2018-02-15T03:59:18.462Z,93.60
2018-02-15T04:01:46.724Z,93.60
2018-02-15T04:04:14.175Z,93.50
2018-02-15T04:06:41.648Z,93.80
2018-02-15T04:09:09.104Z,93.40
2018-02-15T04:11:36.563Z,93.60
2018-02-15T04:14:04.019Z,93.90
2018-02-15T04:16:31.475Z,93.80
2018-02-15T04:18:58.937Z,94.00
2018-02-15T04:21:26.378Z,94.20
2018-02-15T04:23:53.853Z,94.20
2018-02-15T04:26:21.296Z,95.00
2018-02-15T04:28:49.035Z,95.60
2018-02-15T04:31:16.507Z,96.60
2018-02-15T04:33:43.989Z,97.30
2018-02-15T04:36:11.440Z,99.50
2018-02-15T04:38:38.890Z,99.90
2018-02-15T04:41:06.346Z,99.90
2018-02-15T04:43:33.818Z,99.90
2018-02-15T04:46:01.275Z,99.90
2018-02-15T04:48:28.735Z,99.90
2018-02-15T04:50:57.014Z,99.90
2018-02-15T04:53:24.470Z,99.90
2018-02-15T04:55:52.019Z,99.90
2018-02-15T04:58:19.646Z,99.90
2018-02-15T05:00:47.130Z,99.90
2018-02-15T05:03:14.599Z,99.90
2018-02-15T05:05:42.055Z,99.90
2018-02-15T05:08:09.526Z,99.90
2018-02-15T05:10:37.013Z,99.90
2018-02-15T05:13:05.242Z,99.90
2018-02-15T05:15:32.706Z,99.90
2018-02-15T05:18:00.162Z,99.90
2018-02-15T05:20:27.618Z,99.90
2018-02-15T05:22:55.076Z,99.90
2018-02-15T05:25:22.541Z,99.90
2018-02-15T05:27:50.006Z,99.90
2018-02-15T05:30:17.450Z,99.90
2018-02-15T05:32:44.923Z,99.90
2018-02-15T05:35:12.380Z,99.90
2018-02-15T05:37:39.842Z,99.90
2018-02-15T05:40:07.418Z,99.90
2018-02-15T05:42:35.668Z,99.90
2018-02-15T05:45:03.106Z,99.90
2018-02-15T05:47:30.750Z,99.90
2018-02-15T05:49:58.211Z,99.90
2018-02-15T05:52:25.685Z,99.90
2018-02-15T05:54:53.169Z,99.90
2018-02-15T05:57:20.638Z,99.90
2018-02-15T05:59:48.874Z,99.90
2018-02-15T06:02:16.343Z,99.90
2018-02-15T06:04:43.810Z,99.90
2018-02-15T06:07:11.317Z,99.90
2018-02-15T06:09:39.675Z,99.90
2018-02-15T06:12:07.153Z,99.90
2018-02-15T06:14:35.479Z,99.90
2018-02-15T06:17:02.950Z,99.90
2018-02-15T06:19:30.466Z,99.90
2018-02-15T06:21:58.044Z,99.90
2018-02-15T06:24:25.696Z,99.90
2018-02-15T06:26:53.217Z,99.90
2018-02-15T06:29:21.511Z,99.90
2018-02-15T06:31:49.786Z,99.90
2018-02-15T06:34:18.021Z,99.90
2018-02-15T06:36:45.510Z,99.90
2018-02-15T06:39:13.742Z,99.90
2018-02-15T06:41:41.423Z,99.90
2018-02-15T06:44:09.150Z,99.90
2018-02-15T06:46:36.673Z,99.90
2018-02-15T06:49:04.927Z,99.90
2018-02-15T06:51:32.572Z,99.90
2018-02-15T06:54:00.058Z,99.90
2018-02-15T06:56:27.541Z,99.90
2018-02-15T06:58:55.797Z,99.90
2018-02-15T07:01:23.279Z,99.90
2018-02-15T07:03:51.551Z,99.90
2018-02-15T07:06:19.787Z,99.90
2018-02-15T07:08:47.264Z,99.90
2018-02-15T07:11:15.851Z,99.90
2018-02-15T07:13:43.349Z,99.90
2018-02-15T07:16:10.845Z,99.90
2018-02-15T07:18:38.404Z,99.90
2018-02-15T07:21:05.887Z,99.90
2018-02-15T07:23:33.351Z,99.90
2018-02-15T07:26:01.604Z,99.90
2018-02-15T07:28:29.100Z,99.90
2018-02-15T07:30:57.339Z,99.90
2018-02-15T07:33:25.096Z,99.90
2018-02-15T07:35:52.592Z,99.90
2018-02-15T07:38:20.847Z,99.90
2018-02-15T07:40:48.327Z,99.90
2018-02-15T07:43:16.611Z,99.90
2018-02-15T07:45:44.899Z,99.90
2018-02-15T07:48:12.451Z,99.90
2018-02-15T07:50:40.729Z,99.90
2018-02-15T07:53:08.992Z,99.90
2018-02-15T07:55:37.244Z,99.90
2018-02-15T07:58:04.775Z,99.90
2018-02-15T08:00:32.279Z,99.90
2018-02-15T08:02:59.823Z,99.90
2018-02-15T08:05:27.305Z,99.90
2018-02-15T08:07:55.586Z,99.90
2018-02-15T08:10:23.853Z,99.90
2018-02-15T08:12:51.353Z,99.90
2018-02-15T08:15:18.947Z,99.90
2018-02-15T08:17:46.475Z,99.90
2018-02-15T08:20:14.708Z,99.90
2018-02-15T08:22:42.188Z,99.90
2018-02-15T08:25:10.471Z,99.90
2018-02-15T08:27:38.021Z,99.90
2018-02-15T08:30:06.299Z,99.90
2018-02-15T08:32:34.605Z,99.90
2018-02-15T08:35:02.102Z,99.90
2018-02-15T08:37:29.594Z,99.90
2018-02-15T08:39:57.141Z,99.90
2018-02-15T08:42:25.419Z,99.90
2018-02-15T08:44:52.956Z,99.90
2018-02-15T08:47:20.447Z,99.90
2018-02-15T08:49:48.715Z,99.90
2018-02-15T08:52:17.002Z,99.90
2018-02-15T08:54:45.306Z,99.90
2018-02-15T08:57:12.905Z,99.90
2018-02-15T08:59:40.487Z,99.90
2018-02-15T09:02:07.988Z,99.90
2018-02-15T09:04:35.488Z,99.90
2018-02-15T09:07:03.015Z,99.90
2018-02-15T09:09:30.547Z,99.90
2018-02-15T09:11:58.799Z,99.90
2018-02-15T09:14:26.306Z,99.90
2018-02-15T09:16:54.058Z,99.90
2018-02-15T09:19:22.331Z,99.90
2018-02-15T09:21:50.557Z,99.90
2018-02-15T09:24:18.057Z,99.90
2018-02-15T09:26:46.320Z,99.90
2018-02-15T09:29:14.610Z,99.90
2018-02-15T09:31:42.871Z,99.90
2018-02-15T09:34:10.356Z,99.90
2018-02-15T09:36:37.860Z,99.90
2018-02-15T09:39:05.351Z,99.90
2018-02-15T09:41:32.894Z,99.90
2018-02-15T09:44:00.571Z,99.90
2018-02-15T09:46:28.827Z,99.90
2018-02-15T09:48:56.500Z,99.90
2018-02-15T09:51:24.067Z,99.90
2018-02-15T09:53:51.544Z,99.90
2018-02-15T09:56:19.073Z,99.90
2018-02-15T09:58:46.609Z,99.90
2018-02-15T10:01:14.090Z,99.90
2018-02-15T10:03:41.579Z,99.90
2018-02-15T10:06:09.861Z,99.90
2018-02-15T10:08:38.121Z,99.90
2018-02-15T10:11:05.792Z,99.90
2018-02-15T10:13:34.082Z,99.90
2018-02-15T10:16:02.363Z,99.90
2018-02-15T10:18:30.632Z,99.90
2018-02-15T10:20:58.878Z,99.90
2018-02-15T10:23:26.360Z,99.90
2018-02-15T10:25:54.611Z,99.90
2018-02-15T10:28:22.085Z,99.90
2018-02-15T10:30:50.351Z,99.90
2018-02-15T10:33:17.826Z,99.90
2018-02-15T10:35:46.104Z,99.90
2018-02-15T10:38:14.435Z,99.90
2018-02-15T10:40:41.949Z,99.90
2018-02-15T10:43:10.227Z,99.90
2018-02-15T10:45:38.471Z,99.90
2018-02-15T10:48:05.974Z,99.90
2018-02-15T10:50:34.264Z,99.90
2018-02-15T10:53:01.752Z,99.90
2018-02-15T10:55:29.269Z,99.90
2018-02-15T10:57:57.525Z,99.90
2018-02-15T11:00:40.181Z,99.90
2018-02-15T11:03:13.276Z,99.90
2018-02-15T11:05:40.766Z,99.90
2018-02-15T11:08:08.243Z,99.90
2018-02-15T11:10:35.723Z,99.90
2018-02-15T11:13:03.999Z,99.90
2018-02-15T11:15:32.242Z,99.90
2018-02-15T11:17:59.732Z,99.90
2018-02-15T11:20:28.178Z,99.90
2018-02-15T11:22:55.722Z,99.90
2018-02-15T11:25:23.220Z,99.90
2018-02-15T11:27:51.573Z,99.90
2018-02-15T11:30:19.061Z,99.90
2018-02-15T11:32:47.347Z,99.90
2018-02-15T11:35:15.636Z,99.90
2018-02-15T11:37:43.143Z,99.90
2018-02-15T11:40:10.638Z,99.90
2018-02-15T11:42:38.896Z,99.90
2018-02-15T11:45:06.372Z,99.90
2018-02-15T11:47:34.797Z,99.90
2018-02-15T11:50:02.299Z,99.90
2018-02-15T11:52:29.805Z,99.90
2018-02-15T11:54:57.630Z,99.90
2018-02-15T11:57:25.922Z,99.90
2018-02-15T11:59:54.191Z,99.90
2018-02-15T12:02:22.461Z,99.90
2018-02-15T12:04:50.763Z,99.90
2018-02-15T12:07:18.254Z,99.90
2018-02-15T12:09:45.753Z,99.90
2018-02-15T12:12:14.029Z,99.90
2018-02-15T12:14:41.544Z,99.90
2018-02-15T12:17:09.050Z,99.90
2018-02-15T12:19:37.570Z,99.90
2018-02-15T12:22:05.044Z,99.90
2018-02-15T12:24:32.550Z,99.90
2018-02-15T12:27:00.139Z,99.90
2018-02-15T12:29:28.500Z,99.90
2018-02-15T12:31:56.806Z,99.90
2018-02-15T12:34:24.295Z,99.90
2018-02-15T12:36:51.846Z,99.90
2018-02-15T12:39:19.442Z,99.90
2018-02-15T12:41:47.688Z,99.90
2018-02-15T12:44:15.199Z,99.90
2018-02-15T12:46:43.474Z,99.90
2018-02-15T12:49:11.736Z,99.90
2018-02-15T12:51:40.009Z,99.90
2018-02-15T12:54:08.276Z,99.90
2018-02-15T12:56:35.851Z,99.90
2018-02-15T12:59:03.316Z,99.90
2018-02-15T13:01:30.819Z,99.90
2018-02-15T13:03:58.287Z,99.90
2018-02-15T13:06:25.758Z,99.90
2018-02-15T13:08:53.251Z,99.90
2018-02-15T13:11:21.531Z,99.90
2018-02-15T13:13:50.328Z,99.90
2018-02-15T13:16:30.241Z,99.90
2018-02-15T13:19:09.520Z,99.90
2018-02-15T13:21:37.776Z,99.90
2018-02-15T13:24:06.029Z,99.90
2018-02-15T13:26:33.586Z,99.90
2018-02-15T13:29:01.067Z,99.90
2018-02-15T13:31:28.544Z,99.90
2018-02-15T13:33:57.253Z,99.90
2018-02-15T13:36:24.892Z,99.90
2018-02-15T13:38:53.176Z,99.90
2018-02-15T13:41:20.701Z,99.90
2018-02-15T13:43:48.188Z,99.90
2018-02-15T13:46:16.461Z,99.90
2018-02-15T13:48:44.717Z,99.90
2018-02-15T13:51:12.231Z,99.90
2018-02-15T13:53:39.756Z,99.90
2018-02-15T13:56:08.004Z,99.90
2018-02-15T13:58:35.524Z,99.90
2018-02-15T14:01:03.238Z,99.90
2018-02-15T14:03:30.746Z,99.90
2018-02-15T14:05:58.307Z,99.90
2018-02-15T14:08:25.823Z,99.90
2018-02-15T14:10:53.342Z,99.90
2018-02-15T14:13:20.814Z,99.90
2018-02-15T14:15:48.311Z,99.90
2018-02-15T14:18:16.554Z,99.90
2018-02-15T14:20:44.047Z,99.90
2018-02-15T14:23:12.316Z,99.90
2018-02-15T14:25:40.592Z,99.90
2018-02-15T14:28:08.067Z,99.90
2018-02-15T14:30:36.346Z,99.90
2018-02-15T14:33:04.616Z,99.90
2018-02-15T14:35:32.980Z,99.90
2018-02-15T14:38:00.591Z,99.90
2018-02-15T14:40:28.114Z,99.90
2018-02-15T14:42:56.359Z,99.90
2018-02-15T14:45:23.948Z,99.90
2018-02-15T14:47:52.203Z,99.90
2018-02-15T14:50:19.749Z,99.90
2018-02-15T14:52:47.234Z,99.90
2018-02-15T14:55:15.799Z,99.90
2018-02-15T14:57:43.840Z,99.90
2018-02-15T15:00:11.607Z,99.90
2018-02-15T15:02:39.368Z,99.90
2018-02-15T15:05:06.964Z,99.90
2018-02-15T15:07:34.523Z,99.90
2018-02-15T15:10:02.008Z,99.90
2018-02-15T15:12:30.294Z,99.90
2018-02-15T15:14:58.556Z,99.90
2018-02-15T15:17:26.091Z,99.90
2018-02-15T15:19:53.631Z,99.90
2018-02-15T15:22:21.111Z,99.90
2018-02-15T15:24:48.618Z,99.90
2018-02-15T15:27:16.881Z,99.90
2018-02-15T15:29:45.329Z,99.90
2018-02-15T15:32:13.641Z,99.90
2018-02-15T15:34:41.924Z,99.90
2018-02-15T15:37:10.220Z,99.90
2018-02-15T15:39:37.734Z,99.90
2018-02-15T15:42:05.612Z,99.90
2018-02-15T15:44:33.879Z,99.90
2018-02-15T15:47:01.469Z,99.90
2018-02-15T15:49:29.014Z,99.90
2018-02-15T15:51:57.314Z,99.90
2018-02-15T15:54:24.843Z,99.90
2018-02-15T15:56:52.331Z,99.90
2018-02-15T15:59:20.582Z,99.90
2018-02-15T16:01:48.138Z,99.90
2018-02-15T16:04:15.728Z,99.90
2018-02-15T16:06:43.282Z,99.90
2018-02-15T16:09:12.372Z,99.90
2018-02-15T16:11:40.617Z,99.90
2018-02-15T16:14:08.307Z,99.90
2018-02-15T16:16:36.788Z,99.90
2018-02-15T16:19:05.079Z,99.90
2018-02-15T16:21:33.887Z,99.90
2018-02-15T16:24:01.431Z,99.90
2018-02-15T16:26:29.683Z,99.90
2018-02-15T16:28:57.368Z,99.90
2018-02-15T16:31:25.879Z,99.90
2018-02-15T16:33:53.365Z,99.90
2018-02-15T16:36:20.847Z,99.90
2018-02-15T16:38:48.366Z,99.90
2018-02-15T16:41:15.892Z,99.90
2018-02-15T16:43:43.429Z,99.90
2018-02-15T16:46:11.907Z,99.90
2018-02-15T16:48:39.447Z,99.90
2018-02-15T16:51:06.995Z,99.90
2018-02-15T16:53:34.463Z,99.90
2018-02-15T16:56:01.947Z,99.90
2018-02-15T16:58:30.185Z,99.90
2018-02-15T17:00:57.707Z,99.90
2018-02-15T17:03:26.037Z,99.90
2018-02-15T17:05:53.564Z,99.90
2018-02-15T17:08:21.063Z,99.90
2018-02-15T17:10:48.723Z,99.90
2018-02-15T17:13:16.474Z,99.90
2018-02-15T17:15:43.961Z,99.90
2018-02-15T17:18:11.573Z,99.90
2018-02-15T17:20:39.296Z,99.90
2018-02-15T17:23:07.656Z,99.90
2018-02-15T17:25:35.127Z,99.90
2018-02-15T17:28:02.743Z,99.90
2018-02-15T17:30:30.480Z,99.90
2018-02-15T17:32:58.781Z,99.90
2018-02-15T17:35:26.384Z,99.90
2018-02-15T17:37:54.023Z,99.90
2018-02-15T17:40:21.529Z,99.90
2018-02-15T17:42:49.844Z,99.90
2018-02-15T17:45:17.328Z,99.90
2018-02-15T17:47:45.535Z,99.90
2018-02-15T17:50:13.875Z,99.90
2018-02-15T17:52:41.382Z,99.90
2018-02-15T17:55:09.743Z,99.90
2018-02-15T17:57:37.520Z,99.90
2018-02-15T18:00:05.129Z,99.90
2018-02-15T18:02:32.620Z,99.90
2018-02-15T18:05:00.514Z,99.90
2018-02-15T18:07:28.200Z,99.90
2018-02-15T18:09:56.453Z,99.90
2018-02-15T18:12:25.195Z,99.90
2018-02-15T18:14:52.670Z,99.90
2018-02-15T18:17:20.225Z,99.90
2018-02-15T18:19:47.728Z,99.90
2018-02-15T18:22:15.995Z,99.90
2018-02-15T18:24:44.356Z,99.90
2018-02-15T18:27:11.842Z,99.90
2018-02-15T18:29:40.784Z,99.90
2018-02-15T18:32:08.267Z,99.90
2018-02-15T18:34:36.540Z,99.90
2018-02-15T18:37:04.048Z,99.90
2018-02-15T18:39:32.304Z,99.90
2018-02-15T18:42:00.578Z,99.90
2018-02-15T18:44:28.861Z,99.90
2018-02-15T18:46:57.148Z,99.90
2018-02-15T18:49:25.791Z,99.90
2018-02-15T18:51:53.464Z,99.90
2018-02-15T18:54:21.209Z,99.90
2018-02-15T18:56:48.923Z,99.90
2018-02-15T18:59:17.190Z,99.90
2018-02-15T19:01:45.729Z,99.90
2018-02-15T19:04:13.479Z,99.90
2018-02-15T19:06:41.039Z,99.90
2018-02-15T19:09:08.571Z,99.90
2018-02-15T19:11:37.204Z,99.90
2018-02-15T19:14:04.767Z,99.90
2018-02-15T19:16:32.256Z,99.90
2018-02-15T19:19:00.583Z,99.90
2018-02-15T19:21:28.055Z,99.90
2018-02-15T19:23:55.563Z,99.90
2018-02-15T19:26:23.980Z,99.90
2018-02-15T19:28:51.462Z,99.90
2018-02-15T19:31:18.952Z,99.90
2018-02-15T19:33:47.680Z,99.90
2018-02-15T19:36:15.283Z,99.90
2018-02-15T19:38:42.902Z,99.90
2018-02-15T19:41:10.461Z,99.90
2018-02-15T19:43:38.213Z,99.90
2018-02-15T19:46:05.712Z,99.90
2018-02-15T19:48:33.204Z,99.90
2018-02-15T19:51:01.496Z,99.90
2018-02-15T19:53:29.852Z,99.90
2018-02-15T19:55:57.330Z,99.90
2018-02-15T19:58:24.920Z,99.90
2018-02-15T20:00:52.399Z,99.90
2018-02-15T20:03:19.925Z,99.90
2018-02-15T20:05:48.429Z,99.90
2018-02-15T20:08:15.953Z,99.90
2018-02-15T20:10:44.254Z,99.90
2018-02-15T20:13:11.773Z,99.90
2018-02-15T20:15:45.999Z,99.90
2018-02-15T20:18:14.255Z,99.90
2018-02-15T20:20:41.748Z,99.90
2018-02-15T20:23:10.061Z,99.90
2018-02-15T20:25:37.796Z,99.90
2018-02-15T20:28:11.883Z,99.90
2018-02-15T20:30:39.495Z,99.90
2018-02-15T20:33:06.968Z,99.90
2018-02-15T20:35:34.528Z,99.90
2018-02-15T20:38:07.776Z,99.90
2018-02-15T20:40:38.772Z,99.90
2018-02-15T20:43:06.353Z,99.90
2018-02-15T20:45:33.839Z,99.90
2018-02-15T20:48:01.477Z,99.90
2018-02-15T20:50:34.684Z,99.90
2018-02-15T20:53:08.649Z,99.90
2018-02-15T20:55:42.978Z,99.90
2018-02-15T20:58:10.568Z,99.90
2018-02-15T21:00:39.067Z,99.90
2018-02-15T21:03:06.706Z,99.90
2018-02-15T21:05:35.000Z,99.90
2018-02-15T21:08:02.549Z,99.90
2018-02-15T21:10:30.827Z,99.90
2018-02-15T21:12:59.122Z,99.90
2018-02-15T21:15:27.408Z,99.90
2018-02-15T21:17:54.987Z,99.90
2018-02-15T21:20:22.705Z,99.90
2018-02-15T21:22:51.103Z,99.90
2018-02-15T21:25:19.650Z,99.90
2018-02-15T21:27:47.181Z,99.90
2018-02-15T21:30:14.665Z,99.90
2018-02-15T21:32:42.182Z,99.90
2018-02-15T21:35:09.976Z,99.90
2018-02-15T21:37:37.511Z,99.90
2018-02-15T21:40:05.032Z,99.90
2018-02-15T21:42:33.304Z,99.90
2018-02-15T21:45:00.808Z,99.90
2018-02-15T21:47:28.299Z,99.90
2018-02-15T21:49:55.784Z,99.90
2018-02-15T21:52:24.076Z,99.90
2018-02-15T21:54:52.351Z,99.90
2018-02-15T21:57:20.731Z,99.90
2018-02-15T21:59:49.172Z,99.90
2018-02-15T22:02:16.672Z,99.90
2018-02-15T22:04:44.173Z,99.90
2018-02-15T22:07:11.691Z,99.90
2018-02-15T22:09:40.029Z,99.90
2018-02-15T22:12:07.547Z,99.90
2018-02-15T22:14:35.887Z,99.90
2018-02-15T22:17:03.358Z,99.90
2018-02-15T22:19:31.694Z,99.90
2018-02-15T22:21:59.179Z,99.90
2018-02-15T22:24:26.644Z,99.90
2018-02-15T22:26:54.183Z,99.90
2018-02-15T22:29:21.660Z,99.90
2018-02-15T22:31:49.176Z,99.90
2018-02-15T22:34:16.655Z,99.90
2018-02-15T22:36:44.126Z,99.90
2018-02-15T22:39:11.610Z,99.90
2018-02-15T22:41:39.847Z,99.90
2018-02-15T22:44:07.302Z,99.90
2018-02-15T22:46:34.770Z,99.90
2018-02-15T22:49:02.262Z,99.90
2018-02-15T22:51:29.762Z,99.90
2018-02-15T23:00:43.158Z,99.90
2018-02-15T23:03:10.646Z,99.90
2018-02-15T23:05:38.244Z,99.90
2018-02-15T23:08:05.686Z,99.90
2018-02-15T23:10:36.691Z,99.90
2018-02-15T23:13:04.152Z,99.90
2018-02-15T23:15:31.659Z,99.90
2018-02-15T23:17:59.135Z,99.90
2018-02-15T23:20:26.612Z,99.90
2018-02-15T23:22:54.086Z,99.90
2018-02-15T23:25:21.623Z,99.90
2018-02-15T23:27:49.169Z,99.90
2018-02-15T23:30:16.626Z,99.90
2018-02-15T23:32:44.083Z,99.90
2018-02-15T23:35:11.622Z,99.90
2018-02-15T23:37:40.024Z,99.90
2018-02-15T23:40:07.487Z,99.90
2018-02-15T23:42:34.954Z,99.90
2018-02-15T23:45:02.458Z,99.90
2018-02-15T23:47:30.686Z,99.90
2018-02-15T23:49:58.173Z,99.90
2018-02-15T23:52:25.666Z,99.90
2018-02-15T23:54:53.880Z,99.90
2018-02-15T23:57:21.413Z,99.90
2018-02-15T23:59:49.650Z,99.90
